sensor_id;sensor_type;location;lat;lon;timestamp;P1;durP1;ratioP1;P2;durP2;ratioP2
44662;SDS011;30381;52.754;18.258;2023-04-06T00:01:28;53.10;;;24.90;;
44662;SDS011;30381;52.754;18.258;2023-04-06T00:03:57;54.30;;;24.90;;
44662;SDS011;30381;52.754;18.258;2023-04-06T00:06:24;53.80;;;24.80;;
44662;SDS011;30381;52.754;18.258;2023-04-06T00:08:50;44.90;;;22.90;;
44662;SDS011;30381;52.754;18.258;2023-04-06T00:11:16;47.30;;;22.60;;
44662;SDS011;30381;52.754;18.258;2023-04-06T00:13:42;48.50;;;22.30;;
44662;SDS011;30381;52.754;18.258;2023-04-06T00:16:08;47.60;;;22.80;;
44662;SDS011;30381;52.754;18.258;2023-04-06T00:18:35;46.90;;;23.40;;
44662;SDS011;30381;52.754;18.258;2023-04-06T00:21:01;49.60;;;23.10;;
44662;SDS011;30381;52.754;18.258;2023-04-06T00:23:27;47.80;;;21.20;;
44662;SDS011;30381;52.754;18.258;2023-04-06T00:25:53;45.70;;;21.20;;
44662;SDS011;30381;52.754;18.258;2023-04-06T00:28:19;42.30;;;21.60;;
44662;SDS011;30381;52.754;18.258;2023-04-06T00:30:52;44.00;;;21.40;;
44662;SDS011;30381;52.754;18.258;2023-04-06T00:33:40;47.20;;;22.10;;
44662;SDS011;30381;52.754;18.258;2023-04-06T00:36:06;47.90;;;22.00;;
44662;SDS011;30381;52.754;18.258;2023-04-06T00:38:32;50.90;;;21.80;;
44662;SDS011;30381;52.754;18.258;2023-04-06T00:40:58;48.70;;;23.10;;
44662;SDS011;30381;52.754;18.258;2023-04-06T00:43:26;54.30;;;23.30;;
44662;SDS011;30381;52.754;18.258;2023-04-06T00:45:52;52.30;;;23.60;;
44662;SDS011;30381;52.754;18.258;2023-04-06T00:48:19;54.60;;;25.70;;
44662;SDS011;30381;52.754;18.258;2023-04-06T00:50:45;55.80;;;26.80;;
44662;SDS011;30381;52.754;18.258;2023-04-06T00:53:12;58.40;;;26.60;;
44662;SDS011;30381;52.754;18.258;2023-04-06T00:55:39;55.40;;;24.90;;
44662;SDS011;30381;52.754;18.258;2023-04-06T00:58:05;52.00;;;23.90;;
44662;SDS011;30381;52.754;18.258;2023-04-06T01:00:31;54.10;;;25.30;;
44662;SDS011;30381;52.754;18.258;2023-04-06T01:02:58;53.30;;;24.10;;
44662;SDS011;30381;52.754;18.258;2023-04-06T01:05:24;58.40;;;24.90;;
44662;SDS011;30381;52.754;18.258;2023-04-06T01:07:50;51.60;;;23.50;;
44662;SDS011;30381;52.754;18.258;2023-04-06T01:10:25;50.70;;;24.20;;
44662;SDS011;30381;52.754;18.258;2023-04-06T01:12:53;51.40;;;24.40;;
44662;SDS011;30381;52.754;18.258;2023-04-06T01:15:19;55.00;;;25.10;;
44662;SDS011;30381;52.754;18.258;2023-04-06T01:17:46;54.90;;;23.90;;
44662;SDS011;30381;52.754;18.258;2023-04-06T01:20:13;55.00;;;24.50;;
44662;SDS011;30381;52.754;18.258;2023-04-06T01:22:40;53.40;;;25.00;;
44662;SDS011;30381;52.754;18.258;2023-04-06T01:25:06;54.30;;;26.30;;
44662;SDS011;30381;52.754;18.258;2023-04-06T01:27:33;48.00;;;23.30;;
44662;SDS011;30381;52.754;18.258;2023-04-06T01:29:59;50.70;;;25.20;;
44662;SDS011;30381;52.754;18.258;2023-04-06T01:32:26;48.50;;;23.30;;
44662;SDS011;30381;52.754;18.258;2023-04-06T01:34:53;53.40;;;23.60;;
44662;SDS011;30381;52.754;18.258;2023-04-06T01:37:20;53.90;;;25.60;;
44662;SDS011;30381;52.754;18.258;2023-04-06T01:39:46;50.30;;;25.00;;
44662;SDS011;30381;52.754;18.258;2023-04-06T01:42:16;49.90;;;23.30;;
44662;SDS011;30381;52.754;18.258;2023-04-06T01:44:43;55.20;;;22.80;;
44662;SDS011;30381;52.754;18.258;2023-04-06T01:47:10;51.80;;;24.20;;
44662;SDS011;30381;52.754;18.258;2023-04-06T01:49:37;47.20;;;22.40;;
44662;SDS011;30381;52.754;18.258;2023-04-06T01:52:03;54.00;;;23.90;;
44662;SDS011;30381;52.754;18.258;2023-04-06T01:54:30;53.90;;;23.90;;
44662;SDS011;30381;52.754;18.258;2023-04-06T01:56:56;54.60;;;25.20;;
44662;SDS011;30381;52.754;18.258;2023-04-06T01:59:22;53.70;;;24.10;;
44662;SDS011;30381;52.754;18.258;2023-04-06T02:01:48;51.00;;;23.90;;
44662;SDS011;30381;52.754;18.258;2023-04-06T02:04:14;52.20;;;24.60;;
44662;SDS011;30381;52.754;18.258;2023-04-06T02:06:41;49.40;;;23.80;;
44662;SDS011;30381;52.754;18.258;2023-04-06T02:09:07;50.10;;;23.20;;
44662;SDS011;30381;52.754;18.258;2023-04-06T02:11:33;54.40;;;25.00;;
44662;SDS011;30381;52.754;18.258;2023-04-06T02:14:01;49.00;;;22.90;;
44662;SDS011;30381;52.754;18.258;2023-04-06T02:16:28;51.40;;;24.50;;
44662;SDS011;30381;52.754;18.258;2023-04-06T02:18:54;53.90;;;25.40;;
44662;SDS011;30381;52.754;18.258;2023-04-06T02:21:20;56.10;;;26.30;;
44662;SDS011;30381;52.754;18.258;2023-04-06T02:23:47;57.50;;;26.60;;
44662;SDS011;30381;52.754;18.258;2023-04-06T02:26:13;61.60;;;28.90;;
44662;SDS011;30381;52.754;18.258;2023-04-06T02:28:40;59.80;;;27.80;;
44662;SDS011;30381;52.754;18.258;2023-04-06T02:31:07;60.70;;;28.10;;
44662;SDS011;30381;52.754;18.258;2023-04-06T02:33:36;53.70;;;27.60;;
44662;SDS011;30381;52.754;18.258;2023-04-06T02:36:03;54.50;;;25.10;;
44662;SDS011;30381;52.754;18.258;2023-04-06T02:38:30;56.00;;;25.00;;
44662;SDS011;30381;52.754;18.258;2023-04-06T02:40:56;54.40;;;26.40;;
44662;SDS011;30381;52.754;18.258;2023-04-06T02:43:23;57.10;;;26.20;;
44662;SDS011;30381;52.754;18.258;2023-04-06T02:45:51;69.00;;;28.00;;
44662;SDS011;30381;52.754;18.258;2023-04-06T02:48:20;64.00;;;28.60;;
44662;SDS011;30381;52.754;18.258;2023-04-06T02:50:54;55.70;;;25.70;;
44662;SDS011;30381;52.754;18.258;2023-04-06T02:53:20;62.60;;;27.60;;
44662;SDS011;30381;52.754;18.258;2023-04-06T02:55:46;76.10;;;32.80;;
44662;SDS011;30381;52.754;18.258;2023-04-06T02:58:17;73.70;;;32.40;;
44662;SDS011;30381;52.754;18.258;2023-04-06T03:00:43;134.30;;;58.50;;
44662;SDS011;30381;52.754;18.258;2023-04-06T03:03:11;71.90;;;34.30;;
44662;SDS011;30381;52.754;18.258;2023-04-06T03:05:37;70.60;;;32.80;;
44662;SDS011;30381;52.754;18.258;2023-04-06T03:08:05;59.30;;;27.70;;
44662;SDS011;30381;52.754;18.258;2023-04-06T03:10:31;53.50;;;25.70;;
44662;SDS011;30381;52.754;18.258;2023-04-06T03:12:57;66.40;;;27.30;;
44662;SDS011;30381;52.754;18.258;2023-04-06T03:15:24;55.40;;;26.80;;
44662;SDS011;30381;52.754;18.258;2023-04-06T03:17:50;57.90;;;26.20;;
44662;SDS011;30381;52.754;18.258;2023-04-06T03:20:17;52.70;;;25.50;;
44662;SDS011;30381;52.754;18.258;2023-04-06T03:22:43;54.70;;;26.80;;
44662;SDS011;30381;52.754;18.258;2023-04-06T03:25:09;52.50;;;23.90;;
44662;SDS011;30381;52.754;18.258;2023-04-06T03:27:37;54.40;;;23.70;;
44662;SDS011;30381;52.754;18.258;2023-04-06T03:30:03;44.70;;;20.40;;
44662;SDS011;30381;52.754;18.258;2023-04-06T03:32:34;45.00;;;21.30;;
44662;SDS011;30381;52.754;18.258;2023-04-06T03:35:04;48.90;;;22.60;;
44662;SDS011;30381;52.754;18.258;2023-04-06T03:37:33;45.70;;;23.50;;
44662;SDS011;30381;52.754;18.258;2023-04-06T03:39:59;50.70;;;22.50;;
44662;SDS011;30381;52.754;18.258;2023-04-06T03:42:29;46.50;;;23.10;;
44662;SDS011;30381;52.754;18.258;2023-04-06T03:44:57;48.60;;;23.80;;
44662;SDS011;30381;52.754;18.258;2023-04-06T03:47:23;45.50;;;22.00;;
44662;SDS011;30381;52.754;18.258;2023-04-06T03:49:49;67.10;;;34.30;;
44662;SDS011;30381;52.754;18.258;2023-04-06T03:52:15;60.60;;;29.60;;
44662;SDS011;30381;52.754;18.258;2023-04-06T03:54:42;62.40;;;31.60;;
44662;SDS011;30381;52.754;18.258;2023-04-06T03:57:08;56.10;;;29.50;;
44662;SDS011;30381;52.754;18.258;2023-04-06T03:59:36;44.00;;;21.60;;
44662;SDS011;30381;52.754;18.258;2023-04-06T04:02:24;43.10;;;21.90;;
44662;SDS011;30381;52.754;18.258;2023-04-06T04:04:50;46.70;;;22.20;;
44662;SDS011;30381;52.754;18.258;2023-04-06T04:07:17;48.00;;;22.20;;
44662;SDS011;30381;52.754;18.258;2023-04-06T04:09:43;41.90;;;21.10;;
44662;SDS011;30381;52.754;18.258;2023-04-06T04:12:27;43.80;;;22.10;;
44662;SDS011;30381;52.754;18.258;2023-04-06T04:14:56;50.00;;;25.10;;
44662;SDS011;30381;52.754;18.258;2023-04-06T04:17:24;68.30;;;29.80;;
44662;SDS011;30381;52.754;18.258;2023-04-06T04:19:50;51.40;;;24.30;;
44662;SDS011;30381;52.754;18.258;2023-04-06T04:22:16;44.50;;;22.40;;
44662;SDS011;30381;52.754;18.258;2023-04-06T04:24:43;51.20;;;23.60;;
44662;SDS011;30381;52.754;18.258;2023-04-06T04:27:12;47.60;;;22.90;;
44662;SDS011;30381;52.754;18.258;2023-04-06T04:29:48;46.30;;;22.00;;
44662;SDS011;30381;52.754;18.258;2023-04-06T04:32:28;45.70;;;22.20;;
44662;SDS011;30381;52.754;18.258;2023-04-06T04:34:57;50.70;;;23.70;;
44662;SDS011;30381;52.754;18.258;2023-04-06T04:37:23;58.60;;;27.30;;
44662;SDS011;30381;52.754;18.258;2023-04-06T04:39:52;59.40;;;25.70;;
44662;SDS011;30381;52.754;18.258;2023-04-06T04:42:21;53.20;;;23.00;;
44662;SDS011;30381;52.754;18.258;2023-04-06T04:44:47;55.30;;;26.40;;
44662;SDS011;30381;52.754;18.258;2023-04-06T04:47:13;132.40;;;51.50;;
44662;SDS011;30381;52.754;18.258;2023-04-06T04:49:40;108.80;;;42.40;;
44662;SDS011;30381;52.754;18.258;2023-04-06T04:52:06;85.30;;;38.90;;
44662;SDS011;30381;52.754;18.258;2023-04-06T04:54:32;99.80;;;40.50;;
44662;SDS011;30381;52.754;18.258;2023-04-06T04:56:59;78.50;;;32.20;;
44662;SDS011;30381;52.754;18.258;2023-04-06T04:59:25;81.50;;;34.20;;
44662;SDS011;30381;52.754;18.258;2023-04-06T05:01:51;66.80;;;31.20;;
44662;SDS011;30381;52.754;18.258;2023-04-06T05:04:20;65.60;;;31.60;;
44662;SDS011;30381;52.754;18.258;2023-04-06T05:06:46;73.60;;;34.20;;
44662;SDS011;30381;52.754;18.258;2023-04-06T05:09:12;75.50;;;35.30;;
44662;SDS011;30381;52.754;18.258;2023-04-06T05:11:38;77.30;;;36.50;;
44662;SDS011;30381;52.754;18.258;2023-04-06T05:14:05;78.10;;;36.70;;
44662;SDS011;30381;52.754;18.258;2023-04-06T05:16:34;90.20;;;41.70;;
44662;SDS011;30381;52.754;18.258;2023-04-06T05:19:42;93.40;;;40.30;;
44662;SDS011;30381;52.754;18.258;2023-04-06T05:22:09;98.60;;;41.60;;
44662;SDS011;30381;52.754;18.258;2023-04-06T05:24:35;104.30;;;41.20;;
44662;SDS011;30381;52.754;18.258;2023-04-06T05:47:52;110.00;;;43.20;;
44662;SDS011;30381;52.754;18.258;2023-04-06T05:51:05;72.30;;;34.90;;
44662;SDS011;30381;52.754;18.258;2023-04-06T07:43:24;33.80;;;14.60;;
44662;SDS011;30381;52.754;18.258;2023-04-06T07:51:27;40.20;;;16.60;;
44662;SDS011;30381;52.754;18.258;2023-04-06T07:54:04;16.10;;;7.00;;
44662;SDS011;30381;52.754;18.258;2023-04-06T07:56:37;41.00;;;16.50;;
44662;SDS011;30381;52.754;18.258;2023-04-06T07:59:28;27.50;;;12.80;;
44662;SDS011;30381;52.754;18.258;2023-04-06T08:02:32;67.30;;;31.50;;
44662;SDS011;30381;52.754;18.258;2023-04-06T08:05:02;39.10;;;18.40;;
44662;SDS011;30381;52.754;18.258;2023-04-06T08:07:36;27.20;;;12.20;;
44662;SDS011;30381;52.754;18.258;2023-04-06T08:10:05;31.30;;;18.40;;
44662;SDS011;30381;52.754;18.258;2023-04-06T08:12:33;15.40;;;6.40;;
44662;SDS011;30381;52.754;18.258;2023-04-06T08:15:04;15.90;;;7.10;;
44662;SDS011;30381;52.754;18.258;2023-04-06T08:34:05;47.70;;;26.20;;
44662;SDS011;30381;52.754;18.258;2023-04-06T08:36:31;12.90;;;6.80;;
44662;SDS011;30381;52.754;18.258;2023-04-06T08:39:10;12.40;;;6.00;;
44662;SDS011;30381;52.754;18.258;2023-04-06T08:41:43;26.20;;;8.80;;
44662;SDS011;30381;52.754;18.258;2023-04-06T08:44:31;13.90;;;6.70;;
44662;SDS011;30381;52.754;18.258;2023-04-06T08:47:04;21.10;;;10.70;;
44662;SDS011;30381;52.754;18.258;2023-04-06T08:49:34;13.10;;;6.60;;
44662;SDS011;30381;52.754;18.258;2023-04-06T08:52:07;14.70;;;6.80;;
44662;SDS011;30381;52.754;18.258;2023-04-06T08:54:36;18.00;;;7.80;;
44662;SDS011;30381;52.754;18.258;2023-04-06T08:57:06;11.50;;;5.50;;
44662;SDS011;30381;52.754;18.258;2023-04-06T08:59:34;12.30;;;5.50;;
44662;SDS011;30381;52.754;18.258;2023-04-06T09:02:03;13.60;;;5.60;;
44662;SDS011;30381;52.754;18.258;2023-04-06T09:04:34;117.90;;;33.80;;
44662;SDS011;30381;52.754;18.258;2023-04-06T09:07:05;52.40;;;17.40;;
44662;SDS011;30381;52.754;18.258;2023-04-06T09:09:31;164.60;;;64.30;;
44662;SDS011;30381;52.754;18.258;2023-04-06T09:12:06;35.80;;;17.80;;
44662;SDS011;30381;52.754;18.258;2023-04-06T09:14:36;14.40;;;7.60;;
44662;SDS011;30381;52.754;18.258;2023-04-06T09:17:08;36.50;;;20.00;;
44662;SDS011;30381;52.754;18.258;2023-04-06T09:19:46;42.50;;;16.20;;
44662;SDS011;30381;52.754;18.258;2023-04-06T09:22:12;60.40;;;25.60;;
44662;SDS011;30381;52.754;18.258;2023-04-06T09:24:40;31.00;;;16.70;;
44662;SDS011;30381;52.754;18.258;2023-04-06T09:27:16;21.10;;;10.60;;
44662;SDS011;30381;52.754;18.258;2023-04-06T09:29:43;15.40;;;7.70;;
44662;SDS011;30381;52.754;18.258;2023-04-06T09:32:10;11.60;;;5.50;;
44662;SDS011;30381;52.754;18.258;2023-04-06T09:34:38;13.10;;;6.30;;
44662;SDS011;30381;52.754;18.258;2023-04-06T09:37:17;10.60;;;4.20;;
44662;SDS011;30381;52.754;18.258;2023-04-06T09:39:45;19.40;;;9.70;;
44662;SDS011;30381;52.754;18.258;2023-04-06T09:42:24;27.40;;;15.80;;
44662;SDS011;30381;52.754;18.258;2023-04-06T09:44:54;11.50;;;5.90;;
44662;SDS011;30381;52.754;18.258;2023-04-06T09:47:20;11.20;;;5.00;;
44662;SDS011;30381;52.754;18.258;2023-04-06T09:49:50;10.80;;;5.10;;
44662;SDS011;30381;52.754;18.258;2023-04-06T09:52:19;36.10;;;14.30;;
44662;SDS011;30381;52.754;18.258;2023-04-06T09:54:49;11.10;;;5.10;;
44662;SDS011;30381;52.754;18.258;2023-04-06T09:57:22;16.20;;;7.00;;
44662;SDS011;30381;52.754;18.258;2023-04-06T09:59:58;15.90;;;6.80;;
44662;SDS011;30381;52.754;18.258;2023-04-06T10:02:38;13.50;;;6.00;;
44662;SDS011;30381;52.754;18.258;2023-04-06T10:05:07;23.10;;;10.60;;
44662;SDS011;30381;52.754;18.258;2023-04-06T10:07:39;16.30;;;7.70;;
44662;SDS011;30381;52.754;18.258;2023-04-06T10:10:07;23.30;;;7.90;;
44662;SDS011;30381;52.754;18.258;2023-04-06T10:12:36;14.50;;;5.20;;
44662;SDS011;30381;52.754;18.258;2023-04-06T10:29:03;12.80;;;4.50;;
44662;SDS011;30381;52.754;18.258;2023-04-06T10:31:30;11.40;;;4.00;;
44662;SDS011;30381;52.754;18.258;2023-04-06T10:34:01;49.90;;;14.30;;
44662;SDS011;30381;52.754;18.258;2023-04-06T10:36:33;36.00;;;11.30;;
44662;SDS011;30381;52.754;18.258;2023-04-06T10:39:03;23.60;;;7.60;;
44662;SDS011;30381;52.754;18.258;2023-04-06T10:41:36;32.30;;;10.70;;
44662;SDS011;30381;52.754;18.258;2023-04-06T10:44:20;33.40;;;11.30;;
44662;SDS011;30381;52.754;18.258;2023-04-06T11:17:47;12.60;;;5.70;;
44662;SDS011;30381;52.754;18.258;2023-04-06T11:20:34;12.30;;;5.80;;
44662;SDS011;30381;52.754;18.258;2023-04-06T11:23:00;34.10;;;17.10;;
44662;SDS011;30381;52.754;18.258;2023-04-06T11:25:27;21.20;;;13.00;;
44662;SDS011;30381;52.754;18.258;2023-04-06T11:27:55;77.70;;;39.20;;
44662;SDS011;30381;52.754;18.258;2023-04-06T11:30:22;18.50;;;10.10;;
44662;SDS011;30381;52.754;18.258;2023-04-06T11:32:48;14.70;;;8.00;;
44662;SDS011;30381;52.754;18.258;2023-04-06T11:35:23;15.20;;;6.40;;
44662;SDS011;30381;52.754;18.258;2023-04-06T11:37:49;12.70;;;6.50;;
44662;SDS011;30381;52.754;18.258;2023-04-06T11:40:23;14.20;;;6.20;;
44662;SDS011;30381;52.754;18.258;2023-04-06T11:42:53;14.80;;;6.60;;
44662;SDS011;30381;52.754;18.258;2023-04-06T11:45:21;13.30;;;6.90;;
44662;SDS011;30381;52.754;18.258;2023-04-06T11:47:57;10.80;;;4.60;;
44662;SDS011;30381;52.754;18.258;2023-04-06T11:50:25;11.60;;;5.30;;
44662;SDS011;30381;52.754;18.258;2023-04-06T11:55:28;14.90;;;7.50;;
44662;SDS011;30381;52.754;18.258;2023-04-06T11:57:56;24.90;;;12.20;;
44662;SDS011;30381;52.754;18.258;2023-04-06T12:00:43;15.30;;;6.30;;
44662;SDS011;30381;52.754;18.258;2023-04-06T12:03:18;13.90;;;7.50;;
44662;SDS011;30381;52.754;18.258;2023-04-06T12:05:50;15.60;;;7.20;;
44662;SDS011;30381;52.754;18.258;2023-04-06T12:08:16;16.10;;;7.10;;
44662;SDS011;30381;52.754;18.258;2023-04-06T12:10:43;15.70;;;7.50;;
44662;SDS011;30381;52.754;18.258;2023-04-06T12:13:10;17.90;;;9.00;;
44662;SDS011;30381;52.754;18.258;2023-04-06T12:15:36;15.40;;;6.10;;
44662;SDS011;30381;52.754;18.258;2023-04-06T12:18:03;16.20;;;6.40;;
44662;SDS011;30381;52.754;18.258;2023-04-06T12:20:29;16.20;;;7.30;;
44662;SDS011;30381;52.754;18.258;2023-04-06T12:22:55;15.00;;;6.20;;
44662;SDS011;30381;52.754;18.258;2023-04-06T12:25:23;15.60;;;7.00;;
44662;SDS011;30381;52.754;18.258;2023-04-06T12:27:51;13.60;;;6.30;;
44662;SDS011;30381;52.754;18.258;2023-04-06T12:30:18;18.90;;;8.10;;
44662;SDS011;30381;52.754;18.258;2023-04-06T12:32:45;16.60;;;6.70;;
44662;SDS011;30381;52.754;18.258;2023-04-06T12:35:14;14.50;;;7.10;;
44662;SDS011;30381;52.754;18.258;2023-04-06T12:37:42;15.80;;;6.50;;
44662;SDS011;30381;52.754;18.258;2023-04-06T12:40:08;16.20;;;6.70;;
44662;SDS011;30381;52.754;18.258;2023-04-06T12:42:38;16.00;;;8.70;;
44662;SDS011;30381;52.754;18.258;2023-04-06T12:45:10;14.30;;;6.10;;
44662;SDS011;30381;52.754;18.258;2023-04-06T12:47:40;14.30;;;6.60;;
44662;SDS011;30381;52.754;18.258;2023-04-06T12:50:07;17.50;;;12.40;;
44662;SDS011;30381;52.754;18.258;2023-04-06T12:52:36;12.90;;;6.10;;
44662;SDS011;30381;52.754;18.258;2023-04-06T12:55:03;14.20;;;5.80;;
44662;SDS011;30381;52.754;18.258;2023-04-06T12:57:32;12.00;;;4.90;;
44662;SDS011;30381;52.754;18.258;2023-04-06T12:59:59;12.70;;;4.50;;
44662;SDS011;30381;52.754;18.258;2023-04-06T13:02:28;10.40;;;4.70;;
44662;SDS011;30381;52.754;18.258;2023-04-06T13:05:00;12.20;;;5.60;;
44662;SDS011;30381;52.754;18.258;2023-04-06T13:07:27;14.30;;;5.20;;
44662;SDS011;30381;52.754;18.258;2023-04-06T13:09:54;12.40;;;4.50;;
44662;SDS011;30381;52.754;18.258;2023-04-06T13:12:21;11.20;;;5.00;;
44662;SDS011;30381;52.754;18.258;2023-04-06T13:14:50;11.20;;;4.40;;
44662;SDS011;30381;52.754;18.258;2023-04-06T13:17:19;14.00;;;5.50;;
44662;SDS011;30381;52.754;18.258;2023-04-06T13:19:46;12.10;;;5.50;;
44662;SDS011;30381;52.754;18.258;2023-04-06T13:22:14;11.00;;;5.50;;
44662;SDS011;30381;52.754;18.258;2023-04-06T13:24:41;13.50;;;6.30;;
44662;SDS011;30381;52.754;18.258;2023-04-06T13:27:09;12.70;;;5.20;;
44662;SDS011;30381;52.754;18.258;2023-04-06T13:53:00;11.20;;;5.40;;
44662;SDS011;30381;52.754;18.258;2023-04-06T13:55:27;52.40;;;16.80;;
44662;SDS011;30381;52.754;18.258;2023-04-06T13:58:36;13.90;;;5.20;;
44662;SDS011;30381;52.754;18.258;2023-04-06T14:01:40;14.30;;;5.60;;
44662;SDS011;30381;52.754;18.258;2023-04-06T14:04:12;15.30;;;7.00;;
44662;SDS011;30381;52.754;18.258;2023-04-06T14:06:44;11.80;;;4.70;;
44662;SDS011;30381;52.754;18.258;2023-04-06T14:09:11;13.40;;;6.80;;
44662;SDS011;30381;52.754;18.258;2023-04-06T14:11:38;13.00;;;6.10;;
44662;SDS011;30381;52.754;18.258;2023-04-06T14:14:05;14.50;;;6.40;;
44662;SDS011;30381;52.754;18.258;2023-04-06T14:16:33;28.90;;;16.70;;
44662;SDS011;30381;52.754;18.258;2023-04-06T14:32:57;15.00;;;7.60;;
44662;SDS011;30381;52.754;18.258;2023-04-06T14:35:23;27.60;;;14.90;;
44662;SDS011;30381;52.754;18.258;2023-04-06T14:37:51;19.70;;;10.70;;
44662;SDS011;30381;52.754;18.258;2023-04-06T14:40:17;14.80;;;6.30;;
44662;SDS011;30381;52.754;18.258;2023-04-06T14:42:46;13.30;;;7.10;;
44662;SDS011;30381;52.754;18.258;2023-04-06T14:45:13;14.10;;;5.80;;
44662;SDS011;30381;52.754;18.258;2023-04-06T14:47:48;15.90;;;7.50;;
44662;SDS011;30381;52.754;18.258;2023-04-06T14:50:56;20.70;;;9.00;;
44662;SDS011;30381;52.754;18.258;2023-04-06T14:53:23;19.50;;;8.80;;
44662;SDS011;30381;52.754;18.258;2023-04-06T20:05:47;16.30;;;6.30;;
44662;SDS011;30381;52.754;18.258;2023-04-06T20:08:50;15.60;;;7.40;;
44662;SDS011;30381;52.754;18.258;2023-04-06T20:12:01;15.60;;;6.40;;
44662;SDS011;30381;52.754;18.258;2023-04-06T20:14:57;22.20;;;9.80;;
44662;SDS011;30381;52.754;18.258;2023-04-06T20:18:26;17.40;;;9.00;;
44662;SDS011;30381;52.754;18.258;2023-04-06T20:27:23;26.80;;;11.80;;
44662;SDS011;30381;52.754;18.258;2023-04-06T20:30:38;29.20;;;14.00;;
44662;SDS011;30381;52.754;18.258;2023-04-06T20:37:53;17.20;;;6.80;;
